Time;durP1;ratioP1;P1;durP2;ratioP2;P2;SDS_P1;SDS_P2;PMS_P1;PMS_P2;Temp;Humidity;BMP_temperature;BMP_pressure;BME280_temperature;BME280_humidity;BME280_pressure;Samples;Min_cycle;Max_cycle;Signal;HPM_P1;HPM_P2
2023/12/22 00:02:09;;;;;;;0.10;0.10;;;5.60;99.90;;;;;;5054670;28;20866;-78
2023/12/22 00:04:35;;;;;;;0.10;0.10;;;5.50;99.90;;;;;;5055611;28;20529;-78
2023/12/22 00:07:22;;;;;;;1.55;1.55;;;5.60;99.90;;;;;;5047634;28;20056;-78
2023/12/22 00:09:48;;;;;;;0.10;0.10;;;5.50;99.90;;;;;;5046134;28;20041;-79
2023/12/22 00:12:14;;;;;;;0.47;0.47;;;5.60;99.90;;;;;;5048457;28;20083;-78
2023/12/22 00:14:44;;;;;;;0.30;0.30;;;5.60;99.90;;;;;;5050782;28;20045;-77
2023/12/22 00:17:10;;;;;;;0.10;0.10;;;;;;;;;;5050958;28;20032;-78
2023/12/22 00:19:40;;;;;;;17.30;13.40;;;5.60;99.90;;;;;;5045074;28;20028;-78
2023/12/22 00:22:07;;;;;;;4.53;3.92;;;5.50;99.90;;;;;;5047273;28;20119;-78
2023/12/22 00:24:35;;;;;;;5.65;5.45;;;5.60;99.90;;;;;;5051314;28;20045;-78
2023/12/22 00:27:03;;;;;;;0.35;0.35;;;5.80;99.90;;;;;;5052742;28;20029;-79
2023/12/22 00:29:39;;;;;;;39.30;12.57;;;5.70;99.90;;;;;;5046952;28;20736;-78
2023/12/22 00:32:09;;;;;;;2.45;2.30;;;5.70;99.90;;;;;;5057293;28;20037;-78
2023/12/22 00:34:36;;;;;;;0.10;0.10;;;5.60;99.90;;;;;;5055276;28;20021;-79
2023/12/22 00:37:12;;;;;;;0.25;0.25;;;5.60;99.90;;;;;;5046882;28;20593;-78
2023/12/22 00:39:48;;;;;;;3.03;2.83;;;5.60;99.90;;;;;;4962044;28;20090;-78
2023/12/22 00:42:14;;;;;;;13.77;13.05;;;5.70;99.90;;;;;;5047519;28;20045;-79
2023/12/22 00:44:40;;;;;;;1.55;1.55;;;5.70;99.90;;;;;;5028001;28;20017;-80
2023/12/22 00:47:06;;;;;;;0.15;0.15;;;5.70;99.90;;;;;;5047876;28;20032;-78
2023/12/22 00:49:31;;;;;;;0.13;0.13;;;5.80;99.90;;;;;;5056193;28;20017;-78
2023/12/22 00:51:58;;;;;;;10.77;10.43;;;5.80;99.90;;;;;;5057344;28;20101;-79
2023/12/22 00:54:25;;;;;;;0.30;0.30;;;;;;;;;;5056852;28;20032;-78
2023/12/22 00:56:50;;;;;;;0.10;0.10;;;5.90;99.90;;;;;;5043759;28;20021;-79
2023/12/22 00:59:16;;;;;;;0.10;0.10;;;5.90;99.90;;;;;;5041260;28;20084;-80
2023/12/22 01:01:43;;;;;;;7.57;7.22;;;5.90;99.90;;;;;;5041411;28;20052;-79
2023/12/22 01:04:09;;;;;;;2.35;2.22;;;6.00;99.90;;;;;;5022352;28;20071;-79
2023/12/22 01:06:59;;;;;;;0.10;0.10;;;5.90;99.90;;;;;;5044842;28;20021;-79
2023/12/22 01:09:27;;;;;;;0.10;0.10;;;5.90;99.90;;;;;;5022746;28;20615;-78
2023/12/22 01:11:54;;;;;;;1.70;1.70;;;6.00;99.90;;;;;;5038483;28;20404;-79
2023/12/22 01:14:20;;;;;;;0.10;0.10;;;6.00;99.90;;;;;;5039581;28;20560;-79
2023/12/22 01:16:45;;;;;;;0.10;0.10;;;5.90;99.90;;;;;;5039555;28;20297;-80
2023/12/22 01:19:11;;;;;;;0.10;0.10;;;5.80;99.90;;;;;;5039780;28;20017;-80
2023/12/22 01:21:37;;;;;;;0.35;0.35;;;5.70;99.90;;;;;;5041891;28;20655;-80
2023/12/22 01:24:03;;;;;;;0.10;0.10;;;5.80;99.90;;;;;;5035745;28;20750;-79
2023/12/22 01:26:29;;;;;;;0.52;0.52;;;5.80;99.90;;;;;;5043342;28;20059;-79
2023/12/22 01:28:56;;;;;;;0.40;0.40;;;5.90;99.90;;;;;;5051193;28;20506;-80
2023/12/22 01:31:22;;;;;;;0.90;0.90;;;6.00;99.90;;;;;;5028962;28;20068;-80
2023/12/22 01:33:50;;;;;;;0.10;0.10;;;6.00;99.90;;;;;;5040205;28;20548;-78
2023/12/22 01:36:15;;;;;;;0.10;0.10;;;5.90;99.90;;;;;;5022475;28;20063;-78
2023/12/22 01:38:41;;;;;;;0.10;0.10;;;5.90;99.90;;;;;;5041727;28;20082;-79
2023/12/22 01:41:09;;;;;;;0.10;0.10;;;6.60;99.90;;;;;;5042446;28;20052;-78
2023/12/22 01:43:34;;;;;;;0.10;0.10;;;5.90;99.90;;;;;;5045700;28;20060;-79
2023/12/22 01:46:01;;;;;;;0.08;0.08;;;5.90;99.90;;;;;;5021535;28;20219;-79
2023/12/22 01:48:28;;;;;;;8.00;7.43;;;5.80;99.90;;;;;;5038895;28;20017;-79
2023/12/22 01:50:56;;;;;;;0.10;0.10;;;5.80;99.90;;;;;;5049289;28;20023;-79
2023/12/22 01:53:24;;;;;;;0.10;0.10;;;5.80;99.90;;;;;;5045890;28;20013;-79
2023/12/22 01:55:50;;;;;;;0.00;0.00;;;5.90;99.90;;;;;;5039457;28;20036;-76
2023/12/22 01:58:18;;;;;;;0.30;0.30;;;5.90;99.90;;;;;;5042723;28;20613;-79
2023/12/22 02:00:44;;;;;;;0.20;0.20;;;5.90;99.90;;;;;;5043586;28;20027;-79
2023/12/22 02:03:11;;;;;;;0.75;0.75;;;6.00;99.90;;;;;;5042973;28;20049;-78
2023/12/22 02:05:37;;;;;;;25.35;23.40;;;5.90;99.90;;;;;;5043448;28;20545;-79
2023/12/22 02:08:03;;;;;;;0.10;0.10;;;5.90;99.90;;;;;;5043169;28;20075;-78
2023/12/22 02:10:29;;;;;;;0.10;0.10;;;5.80;99.90;;;;;;5043588;28;20029;-79
2023/12/22 02:12:55;;;;;;;0.15;0.15;;;5.70;99.90;;;;;;5042757;28;20021;-78
2023/12/22 02:15:21;;;;;;;0.52;0.52;;;5.60;99.90;;;;;;5041607;28;20122;-78
2023/12/22 02:17:50;;;;;;;0.20;0.20;;;5.50;99.90;;;;;;5024557;28;20013;-79
2023/12/22 02:20:17;;;;;;;0.20;0.20;;;5.50;99.90;;;;;;5042863;28;20025;-78
2023/12/22 02:22:42;;;;;;;0.40;0.40;;;5.40;99.90;;;;;;5024258;28;20564;-79
2023/12/22 02:25:09;;;;;;;0.00;0.00;;;5.50;99.90;;;;;;5041282;28;20056;-79
2023/12/22 02:27:44;;;;;;;0.20;0.20;;;5.40;99.90;;;;;;5041190;28;20024;-79
2023/12/22 02:30:15;;;;;;;0.00;0.00;;;5.40;99.90;;;;;;5041277;28;20121;-79
2023/12/22 02:32:44;;;;;;;0.10;0.10;;;5.40;99.90;;;;;;5023692;28;20104;-78
2023/12/22 02:35:15;;;;;;;0.10;0.10;;;4.80;99.90;;;;;;5041950;28;20025;-79
2023/12/22 02:37:43;;;;;;;0.10;0.10;;;5.30;99.90;;;;;;5040736;28;20301;-79
2023/12/22 02:40:10;;;;;;;0.10;0.10;;;5.30;99.90;;;;;;5041818;28;20116;-80
2023/12/22 02:42:37;;;;;;;0.10;0.10;;;5.40;99.90;;;;;;5024325;28;20128;-80
2023/12/22 02:45:07;;;;;;;0.05;0.05;;;5.30;99.90;;;;;;5047920;28;20029;-80
2023/12/22 02:47:33;;;;;;;0.17;0.17;;;5.30;99.90;;;;;;5044861;28;20025;-79
2023/12/22 02:49:59;;;;;;;0.00;0.00;;;4.60;99.90;;;;;;5047916;28;20028;-79
2023/12/22 02:52:25;;;;;;;0.10;0.10;;;5.40;99.90;;;;;;5040978;28;20017;-79
2023/12/22 02:54:51;;;;;;;0.10;0.10;;;5.30;99.90;;;;;;5040668;28;20045;-79
2023/12/22 02:57:16;;;;;;;1.13;1.13;;;5.30;99.90;;;;;;5040294;28;20029;-77
2023/12/22 02:59:42;;;;;;;0.10;0.10;;;5.30;99.90;;;;;;5040472;28;20696;-77
2023/12/22 03:02:08;;;;;;;0.10;0.10;;;5.10;99.90;;;;;;5041540;28;20017;-78
2023/12/22 03:04:34;;;;;;;0.10;0.10;;;5.20;99.90;;;;;;5047911;28;20072;-76
2023/12/22 03:06:59;;;;;;;0.10;0.10;;;5.20;99.90;;;;;;5042177;28;20044;-77
2023/12/22 03:09:26;;;;;;;0.10;0.10;;;5.20;99.90;;;;;;5041899;28;20108;-77
2023/12/22 03:11:54;;;;;;;0.73;0.73;;;5.00;99.90;;;;;;5044947;28;20092;-77
2023/12/22 03:14:20;;;;;;;0.10;0.10;;;5.10;99.90;;;;;;5025593;28;20581;-78
2023/12/22 03:16:46;;;;;;;0.10;0.10;;;5.10;99.90;;;;;;5043745;28;20024;-76
2023/12/22 03:19:14;;;;;;;0.00;0.00;;;5.10;99.90;;;;;;5041682;28;20036;-76
2023/12/22 03:21:39;;;;;;;0.10;0.10;;;5.00;99.90;;;;;;5023567;28;20566;-77
2023/12/22 03:24:05;;;;;;;0.10;0.10;;;5.00;99.90;;;;;;5041175;28;20045;-81
2023/12/22 03:26:31;;;;;;;5.20;4.13;;;5.10;99.90;;;;;;5040653;28;20025;-77
2023/12/22 03:28:57;;;;;;;0.10;0.10;;;5.00;99.90;;;;;;5023653;28;20579;-80
2023/12/22 03:31:24;;;;;;;1.85;1.75;;;5.10;99.90;;;;;;5043418;28;20529;-78
2023/12/22 03:33:57;;;;;;;0.10;0.10;;;5.10;99.90;;;;;;5040723;28;20127;-77
2023/12/22 03:36:23;;;;;;;1.95;1.85;;;5.20;99.90;;;;;;5041377;28;20550;-77
2023/12/22 03:38:49;;;;;;;0.10;0.10;;;5.20;99.90;;;;;;5041209;28;20025;-77
2023/12/22 03:41:17;;;;;;;3.38;2.47;;;5.20;99.90;;;;;;5023508;28;20604;-77
2023/12/22 03:43:43;;;;;;;0.10;0.10;;;5.30;99.90;;;;;;5039861;28;20045;-78
2023/12/22 03:46:12;;;;;;;0.10;0.10;;;5.30;99.90;;;;;;5024566;28;20738;-78
2023/12/22 03:48:38;;;;;;;0.10;0.10;;;5.30;99.90;;;;;;5020390;28;20025;-77
2023/12/22 03:51:04;;;;;;;0.10;0.10;;;5.30;99.90;;;;;;5032066;28;20691;-76
2023/12/22 03:53:32;;;;;;;0.10;0.10;;;5.30;99.90;;;;;;5021717;28;20029;-78
2023/12/22 03:56:01;;;;;;;0.10;0.10;;;5.20;99.90;;;;;;5003267;28;20511;-78
2023/12/22 03:58:29;;;;;;;0.10;0.10;;;;;;;;;;5020128;28;20017;-78
2023/12/22 04:00:55;;;;;;;0.38;0.38;;;;;;;;;;5002707;28;20053;-78
2023/12/22 04:03:21;;;;;;;0.20;0.20;;;5.40;99.90;;;;;;5020058;28;20021;-77
2023/12/22 04:05:47;;;;;;;0.10;0.10;;;5.50;99.90;;;;;;5020971;28;20684;-78
2023/12/22 04:08:13;;;;;;;0.30;0.30;;;5.50;99.90;;;;;;5020081;28;20026;-77
2023/12/22 04:10:43;;;;;;;0.10;0.10;;;5.60;99.90;;;;;;5020856;28;20700;-77
2023/12/22 04:13:09;;;;;;;0.10;0.10;;;;;;;;;;5021485;28;20029;-78
2023/12/22 04:15:35;;;;;;;0.10;0.10;;;5.60;99.90;;;;;;5011266;28;20029;-77
2023/12/22 04:18:01;;;;;;;0.50;0.50;;;5.60;99.90;;;;;;5039197;28;20023;-78
2023/12/22 04:23:22;;;;;;;0.10;0.10;;;5.70;99.90;;;;;;5015665;23;20050;-78
2023/12/22 04:25:48;;;;;;;0.00;0.00;;;5.80;99.90;;;;;;5000397;28;20014;-78
2023/12/22 04:28:20;;;;;;;20.48;17.17;;;5.80;99.90;;;;;;4999420;28;20053;-77
2023/12/22 04:30:46;;;;;;;0.20;0.20;;;5.80;99.90;;;;;;5001954;28;20049;-78
2023/12/22 04:33:11;;;;;;;0.10;0.10;;;5.80;99.90;;;;;;5003705;28;20103;-77
2023/12/22 04:35:43;;;;;;;0.10;0.10;;;5.70;99.90;;;;;;5000614;28;20681;-77
2023/12/22 04:38:09;;;;;;;0.10;0.10;;;5.80;99.90;;;;;;4999355;28;20022;-77
2023/12/22 04:40:35;;;;;;;0.05;0.05;;;5.80;99.90;;;;;;4998964;28;20029;-77
2023/12/22 04:43:01;;;;;;;0.10;0.10;;;8.10;99.90;;;;;;4982006;28;20025;-78
2023/12/22 04:45:27;;;;;;;0.00;0.00;;;5.90;99.90;;;;;;5006153;28;20032;-78
2023/12/22 04:47:52;;;;;;;0.10;0.10;;;5.90;99.90;;;;;;5023110;28;20029;-78
2023/12/22 04:50:18;;;;;;;0.10;0.10;;;6.00;99.90;;;;;;5045338;28;20711;-77
2023/12/22 04:52:44;;;;;;;0.10;0.10;;;6.00;99.90;;;;;;5046221;28;20029;-77
2023/12/22 04:55:10;;;;;;;0.10;0.10;;;5.90;99.90;;;;;;5044972;28;20025;-78
2023/12/22 04:57:36;;;;;;;0.17;0.17;;;6.00;99.90;;;;;;5044695;28;20017;-78
2023/12/22 05:00:01;;;;;;;1.30;1.27;;;6.00;99.90;;;;;;5047825;28;20029;-77
2023/12/22 05:02:29;;;;;;;0.10;0.10;;;6.00;99.90;;;;;;5044609;28;20117;-78
2023/12/22 05:04:54;;;;;;;0.10;0.10;;;6.00;99.90;;;;;;5039214;28;20024;-77
2023/12/22 05:07:20;;;;;;;0.20;0.20;;;5.90;99.90;;;;;;5039739;28;20115;-76
2023/12/22 05:09:46;;;;;;;0.10;0.10;;;5.90;99.90;;;;;;5039367;28;20091;-77
2023/12/22 05:12:12;;;;;;;0.20;0.20;;;6.00;99.90;;;;;;5039381;28;20025;-78
2023/12/22 05:14:37;;;;;;;0.10;0.10;;;6.00;99.90;;;;;;5041256;28;20025;-80
2023/12/22 05:17:03;;;;;;;0.30;0.30;;;6.00;99.90;;;;;;5044745;28;20033;-77
2023/12/22 05:19:33;;;;;;;0.13;0.13;;;6.00;99.90;;;;;;5027498;28;20111;-76
2023/12/22 05:21:59;;;;;;;0.20;0.20;;;6.00;99.90;;;;;;5046999;28;20020;-77
2023/12/22 05:24:25;;;;;;;0.10;0.10;;;6.10;99.90;;;;;;5055724;28;20394;-77
2023/12/22 05:26:53;;;;;;;1.20;1.20;;;6.10;99.90;;;;;;5043635;28;20025;-78
2023/12/22 05:29:19;;;;;;;26.88;25.33;;;6.10;99.90;;;;;;5048500;28;20049;-77
2023/12/22 05:31:45;;;;;;;0.63;0.63;;;6.10;99.90;;;;;;5043430;28;20056;-76
2023/12/22 05:34:11;;;;;;;0.28;0.28;;;6.10;99.90;;;;;;5045808;28;20068;-78
2023/12/22 05:36:37;;;;;;;0.30;0.30;;;6.20;99.90;;;;;;5029643;28;20591;-78
2023/12/22 05:39:03;;;;;;;15.77;8.75;;;6.20;99.90;;;;;;5047495;28;20017;-79
2023/12/22 05:41:29;;;;;;;25.58;24.50;;;6.20;99.90;;;;;;5043338;28;20029;-77
2023/12/22 05:43:54;;;;;;;0.10;0.10;;;6.10;99.90;;;;;;5042657;28;20025;-78
2023/12/22 05:46:21;;;;;;;0.10;0.10;;;6.20;99.90;;;;;;5044342;28;20104;-79
2023/12/22 05:48:46;;;;;;;2.00;1.88;;;6.20;99.90;;;;;;5043885;28;20077;-77
2023/12/22 05:51:13;;;;;;;0.10;0.10;;;6.20;99.90;;;;;;5042364;28;20025;-78
2023/12/22 05:53:42;;;;;;;0.93;0.93;;;6.20;99.90;;;;;;5042399;28;20021;-77
2023/12/22 05:56:20;;;;;;;0.40;0.40;;;6.20;99.90;;;;;;5042408;28;20409;-76
2023/12/22 05:58:47;;;;;;;0.10;0.10;;;6.20;99.90;;;;;;5044410;28;20021;-77
2023/12/22 06:01:19;;;;;;;0.10;0.10;;;6.20;99.90;;;;;;5041800;28;20017;-77
2023/12/22 06:03:48;;;;;;;0.10;0.10;;;6.20;99.90;;;;;;5041602;28;20510;-78
2023/12/22 06:06:14;;;;;;;0.40;0.40;;;6.30;99.90;;;;;;5042101;28;20021;-77
2023/12/22 06:08:40;;;;;;;0.10;0.10;;;6.20;99.90;;;;;;5041674;28;20587;-77
2023/12/22 06:11:12;;;;;;;0.20;0.20;;;6.20;99.90;;;;;;5043967;28;20081;-79
2023/12/22 06:13:38;;;;;;;0.10;0.10;;;6.20;99.90;;;;;;5184342;22;20113;-76
2023/12/22 06:16:18;;;;;;;1.45;1.42;;;4.80;99.90;;;;;;5107311;28;20726;-76
2023/12/22 06:18:44;;;;;;;0.10;0.10;;;6.20;99.90;;;;;;5108001;28;20617;-77
2023/12/22 06:21:10;;;;;;;0.10;0.10;;;6.10;99.90;;;;;;5102567;28;20513;-77
2023/12/22 06:23:36;;;;;;;0.13;0.13;;;6.20;99.90;;;;;;5102339;28;20019;-77
2023/12/22 06:26:09;;;;;;;0.10;0.10;;;6.20;99.90;;;;;;5101971;28;20054;-76
2023/12/22 06:28:36;;;;;;;3.20;3.10;;;6.20;99.90;;;;;;5083274;28;20023;-77
2023/12/22 06:31:03;;;;;;;0.15;0.15;;;7.20;99.90;;;;;;5101940;28;20024;-78
2023/12/22 06:33:29;;;;;;;0.10;0.10;;;6.30;99.90;;;;;;5102612;28;20649;-79
2023/12/22 06:35:55;;;;;;;0.10;0.10;;;6.30;99.90;;;;;;5102146;28;20734;-77
2023/12/22 06:38:21;;;;;;;1.65;1.55;;;6.30;99.90;;;;;;5102275;28;20028;-78
2023/12/22 06:40:47;;;;;;;1.85;1.75;;;7.20;99.90;;;;;;5102124;28;20024;-77
2023/12/22 06:43:14;;;;;;;0.10;0.10;;;6.30;99.90;;;;;;5101812;28;20053;-79
2023/12/22 06:45:40;;;;;;;0.10;0.10;;;6.30;99.90;;;;;;5083353;28;20092;-78
2023/12/22 06:48:09;;;;;;;0.10;0.10;;;6.40;99.90;;;;;;5101139;28;20020;-76
2023/12/22 06:50:36;;;;;;;0.10;0.10;;;;;;;;;;5100614;28;20532;-76
2023/12/22 06:53:02;;;;;;;0.10;0.10;;;6.30;99.90;;;;;;5100833;28;20291;-77
2023/12/22 06:55:29;;;;;;;0.95;0.95;;;6.30;99.90;;;;;;5101248;28;20621;-77
2023/12/22 06:57:56;;;;;;;0.10;0.10;;;6.30;99.90;;;;;;5106035;28;20020;-76
2023/12/22 07:00:29;;;;;;;0.10;0.10;;;6.30;99.90;;;;;;5115298;28;20041;-76
2023/12/22 07:02:55;;;;;;;0.20;0.20;;;;;;;;;;5107931;28;20016;-76
2023/12/22 07:05:21;;;;;;;0.10;0.10;;;6.20;99.90;;;;;;5114337;28;20059;-77
2023/12/22 07:07:48;;;;;;;1.05;1.05;;;6.10;99.90;;;;;;5113187;28;20474;-77
2023/12/22 07:10:16;;;;;;;0.10;0.10;;;6.20;99.90;;;;;;5110556;28;20673;-77
2023/12/22 07:12:44;;;;;;;0.10;0.10;;;6.20;99.90;;;;;;5110881;28;20059;-77
2023/12/22 07:15:10;;;;;;;0.10;0.10;;;6.20;99.90;;;;;;5106677;28;20116;-77
2023/12/22 07:17:38;;;;;;;0.30;0.30;;;;;;;;;;5105820;28;20050;-77
2023/12/22 07:20:04;;;;;;;0.10;0.10;;;6.20;99.90;;;;;;5110416;28;20031;-77
2023/12/22 07:22:30;;;;;;;0.10;0.10;;;;;;;;;;5118303;28;20018;-76
2023/12/22 07:25:00;;;;;;;0.10;0.10;;;6.30;99.90;;;;;;5118898;28;20027;-77
2023/12/22 07:27:26;;;;;;;0.20;0.20;;;6.30;99.90;;;;;;5114844;28;20024;-79
2023/12/22 07:29:53;;;;;;;0.15;0.15;;;6.30;99.90;;;;;;5119454;28;20077;-78
2023/12/22 07:32:20;;;;;;;0.10;0.10;;;6.30;99.90;;;;;;5117078;28;20023;-76
2023/12/22 07:34:48;;;;;;;0.20;0.20;;;6.30;99.90;;;;;;5111575;28;20066;-76
2023/12/22 07:37:14;;;;;;;0.20;0.20;;;;;;;;;;5112852;27;20088;-80
2023/12/22 07:39:41;;;;;;;0.10;0.10;;;6.40;99.90;;;;;;5112515;28;20027;-79
2023/12/22 07:42:07;;;;;;;0.05;0.05;;;6.50;99.90;;;;;;5113770;28;20569;-77
2023/12/22 07:44:33;;;;;;;0.10;0.10;;;6.50;99.90;;;;;;5110316;28;20236;-76
2023/12/22 07:47:01;;;;;;;0.10;0.10;;;6.50;99.90;;;;;;5114452;28;20031;-76
2023/12/22 07:49:30;;;;;;;0.10;0.10;;;6.50;99.90;;;;;;5105136;28;20031;-77
2023/12/22 07:51:56;;;;;;;4.55;4.13;;;6.60;99.90;;;;;;5102444;28;20020;-79
2023/12/22 07:54:21;;;;;;;0.10;0.10;;;6.60;99.90;;;;;;5107146;28;20102;-78
2023/12/22 07:56:49;;;;;;;0.10;0.10;;;6.70;99.90;;;;;;5109415;28;20024;-78
2023/12/22 07:59:15;;;;;;;0.10;0.10;;;6.70;99.90;;;;;;5108358;28;20034;-79
2023/12/22 08:01:41;;;;;;;0.10;0.10;;;6.80;99.90;;;;;;5106386;28;20035;-79
2023/12/22 08:04:09;;;;;;;0.10;0.10;;;6.80;99.90;;;;;;5106373;28;20058;-78
2023/12/22 08:06:38;;;;;;;0.17;0.17;;;9.30;99.90;;;;;;5108876;28;20614;-77
2023/12/22 08:09:07;;;;;;;0.10;0.10;;;6.90;99.90;;;;;;5110565;28;20012;-78
2023/12/22 08:11:32;;;;;;;0.57;0.57;;;7.00;99.90;;;;;;5110115;28;20055;-77
2023/12/22 08:14:01;;;;;;;0.60;0.60;;;7.00;99.90;;;;;;5111749;28;20059;-77
2023/12/22 08:16:29;;;;;;;0.13;0.13;;;7.10;99.90;;;;;;5108533;28;20156;-79
2023/12/22 08:18:56;;;;;;;0.30;0.30;;;7.10;99.90;;;;;;5107988;28;20024;-79
2023/12/22 08:21:24;;;;;;;0.10;0.10;;;7.20;99.90;;;;;;5115075;28;20031;-81
2023/12/22 08:23:50;;;;;;;0.10;0.10;;;7.20;99.90;;;;;;5109935;28;20012;-79
2023/12/22 08:26:25;;;;;;;0.05;0.05;;;7.20;99.90;;;;;;5111122;28;20015;-80
2023/12/22 08:28:51;;;;;;;0.10;0.10;;;7.20;99.90;;;;;;5107538;28;20141;-78
2023/12/22 08:31:21;;;;;;;0.10;0.10;;;7.20;99.90;;;;;;5119381;28;20037;-83
2023/12/22 08:33:47;;;;;;;0.10;0.10;;;7.80;99.90;;;;;;5104247;28;20027;-77
2023/12/22 08:36:13;;;;;;;1.85;1.75;;;7.20;99.90;;;;;;5112334;28;20031;-79
2023/12/22 08:38:42;;;;;;;0.20;0.20;;;7.20;99.90;;;;;;5105652;28;20609;-78
2023/12/22 08:41:08;;;;;;;0.10;0.10;;;7.10;99.90;;;;;;5107261;28;20541;-78
2023/12/22 08:43:34;;;;;;;0.10;0.10;;;7.10;99.90;;;;;;5116716;28;20027;-79
2023/12/22 08:46:00;;;;;;;0.52;0.52;;;7.10;99.90;;;;;;5105993;28;20504;-78
2023/12/22 08:48:26;;;;;;;0.10;0.10;;;7.10;99.90;;;;;;5102355;28;20026;-77
2023/12/22 08:50:56;;;;;;;0.10;0.10;;;7.10;99.90;;;;;;5106486;28;20043;-81
2023/12/22 08:53:22;;;;;;;0.20;0.20;;;;;;;;;;5100871;28;20027;-77
2023/12/22 08:55:48;;;;;;;0.10;0.10;;;7.20;99.90;;;;;;5102678;28;20066;-78
2023/12/22 08:58:14;;;;;;;0.20;0.20;;;7.00;99.90;;;;;;5101581;28;20031;-78
2023/12/22 09:00:40;;;;;;;0.90;0.90;;;7.00;99.90;;;;;;5101097;28;20386;-78
2023/12/22 09:03:05;;;;;;;0.10;0.10;;;7.10;99.90;;;;;;5101041;28;20028;-78
2023/12/22 09:05:32;;;;;;;1.05;1.05;;;7.00;99.90;;;;;;5098841;28;20184;-77
2023/12/22 09:07:58;;;;;;;0.20;0.20;;;7.00;99.90;;;;;;5105228;28;20042;-78
2023/12/22 09:10:25;;;;;;;0.13;0.13;;;7.00;99.90;;;;;;5106180;28;20032;-77
2023/12/22 09:12:54;;;;;;;0.47;0.47;;;7.00;99.90;;;;;;5113901;28;20047;-77
2023/12/22 09:15:19;;;;;;;0.20;0.20;;;7.10;99.90;;;;;;5113686;28;20106;-77
2023/12/22 09:17:49;;;;;;;0.10;0.10;;;7.00;99.90;;;;;;5111861;28;20048;-78
2023/12/22 09:20:15;;;;;;;0.10;0.10;;;6.90;99.90;;;;;;5109199;28;20023;-77
2023/12/22 09:22:40;;;;;;;0.10;0.10;;;6.80;99.90;;;;;;5043593;22;20136;-78
2023/12/22 09:25:08;;;;;;;0.17;0.17;;;6.80;99.90;;;;;;5023961;28;20087;-77
2023/12/22 09:27:34;;;;;;;0.10;0.10;;;6.90;99.90;;;;;;5025947;28;20595;-77
2023/12/22 09:30:00;;;;;;;0.10;0.10;;;6.80;99.90;;;;;;5027295;28;20101;-78
2023/12/22 09:32:26;;;;;;;0.20;0.20;;;;;;;;;;5046991;28;20053;-77
2023/12/22 09:34:55;;;;;;;0.13;0.13;;;6.60;99.90;;;;;;5030986;28;20813;-78
2023/12/22 09:37:21;;;;;;;0.20;0.20;;;6.50;99.90;;;;;;5024998;28;20029;-78
2023/12/22 09:39:47;;;;;;;0.10;0.10;;;6.60;99.90;;;;;;5026162;28;20013;-77
2023/12/22 09:42:15;;;;;;;1.20;1.20;;;6.60;99.90;;;;;;5024599;28;20191;-77
2023/12/22 09:44:43;;;;;;;0.10;0.10;;;6.50;99.90;;;;;;5024460;28;20024;-80
2023/12/22 09:47:12;;;;;;;0.10;0.10;;;6.50;99.90;;;;;;5023858;28;20618;-77
2023/12/22 09:49:39;;;;;;;0.10;0.10;;;6.60;99.90;;;;;;5078343;23;20746;-79
2023/12/22 09:52:06;;;;;;;0.10;0.10;;;6.40;99.90;;;;;;5083992;28;20435;-77
2023/12/22 09:54:33;;;;;;;0.25;0.25;;;6.50;99.90;;;;;;5082775;28;20039;-80
2023/12/22 09:57:04;;;;;;;0.20;0.20;;;6.40;99.90;;;;;;5083764;28;20612;-77
2023/12/22 09:59:31;;;;;;;0.30;0.30;;;6.30;99.90;;;;;;5084127;28;20023;-79
2023/12/22 10:02:05;;;;;;;0.10;0.10;;;6.20;99.90;;;;;;5086777;28;20024;-77
2023/12/22 10:04:31;;;;;;;0.10;0.10;;;6.10;99.90;;;;;;5094695;28;20020;-77
2023/12/22 10:07:01;;;;;;;0.00;0.00;;;6.10;99.90;;;;;;5094555;28;20024;-77
2023/12/22 10:09:27;;;;;;;0.10;0.10;;;6.00;99.90;;;;;;5086759;28;20653;-77
2023/12/22 10:12:04;;;;;;;0.03;0.03;;;5.80;99.90;;;;;;5089114;28;20016;-80
2023/12/22 10:14:32;;;;;;;0.10;0.10;;;4.70;99.90;;;;;;5086782;28;20630;-77
2023/12/22 10:16:58;;;;;;;0.10;0.10;;;5.90;99.90;;;;;;5085652;28;20024;-78
2023/12/22 10:19:23;;;;;;;0.17;0.17;;;5.70;99.90;;;;;;5084794;28;20024;-78
2023/12/22 10:21:50;;;;;;;0.10;0.10;;;5.80;99.90;;;;;;5085129;28;20521;-78
2023/12/22 10:24:43;;;;;;;0.00;0.00;;;5.60;99.90;;;;;;5083881;28;20016;-78
2023/12/22 10:27:26;;;;;;;0.10;0.10;;;5.50;99.90;;;;;;5087371;28;20020;-77
2023/12/22 10:29:56;;;;;;;0.10;0.10;;;5.50;99.90;;;;;;5089984;28;20024;-77
2023/12/22 10:32:22;;;;;;;0.00;0.00;;;5.50;99.90;;;;;;5089661;28;20107;-77
2023/12/22 10:34:52;;;;;;;0.10;0.10;;;5.40;99.90;;;;;;5089355;28;20753;-77
2023/12/22 10:37:18;;;;;;;0.00;0.00;;;5.30;99.90;;;;;;5093984;28;20709;-78
2023/12/22 10:39:54;;;;;;;0.03;0.03;;;5.40;99.90;;;;;;5087144;28;20136;-78
2023/12/22 10:42:27;;;;;;;0.10;0.10;;;5.30;99.90;;;;;;5082868;28;20008;-77
2023/12/22 10:44:53;;;;;;;0.00;0.00;;;5.40;99.90;;;;;;5082286;28;20599;-79
2023/12/22 10:47:21;;;;;;;0.00;0.00;;;5.50;99.90;;;;;;5086342;28;20027;-77
2023/12/22 10:49:47;;;;;;;0.05;0.05;;;;;;;;;;5103605;28;20047;-77
2023/12/22 10:52:20;;;;;;;0.10;0.10;;;5.50;99.90;;;;;;5105713;28;20517;-80
2023/12/22 10:54:49;;;;;;;0.10;0.10;;;5.60;99.90;;;;;;5109174;28;20126;-79
2023/12/22 10:57:21;;;;;;;0.05;0.05;;;5.70;99.90;;;;;;5106570;28;20088;-79
2023/12/22 10:59:57;;;;;;;4.60;4.40;;;5.70;99.90;;;;;;5105735;28;20028;-78
2023/12/22 11:02:30;;;;;;;0.20;0.20;;;5.80;99.90;;;;;;5104264;28;20019;-80
2023/12/22 11:05:12;;;;;;;0.10;0.10;;;5.80;99.90;;;;;;5106307;28;20043;-80
2023/12/22 11:08:03;;;;;;;6.82;6.40;;;5.80;99.90;;;;;;5104076;28;20015;-78
2023/12/22 11:10:32;;;;;;;0.10;0.10;;;7.40;99.90;;;;;;5053648;28;20260;-81
2023/12/22 11:12:59;;;;;;;0.10;0.10;;;6.00;99.90;;;;;;5054333;28;20036;-81
2023/12/22 11:15:29;;;;;;;0.00;0.00;;;6.10;99.90;;;;;;5027169;28;20079;-77
2023/12/22 11:17:57;;;;;;;0.10;0.10;;;6.10;99.90;;;;;;5046878;28;20025;-78
2023/12/22 11:20:26;;;;;;;0.70;0.70;;;6.10;99.90;;;;;;5024312;28;20736;-80
2023/12/22 11:22:55;;;;;;;0.20;0.20;;;6.20;99.90;;;;;;5044176;28;20013;-78
2023/12/22 11:25:23;;;;;;;0.20;0.20;;;6.30;99.90;;;;;;5026347;28;20083;-79
2023/12/22 11:27:55;;;;;;;0.17;0.17;;;6.30;99.90;;;;;;5045143;28;20083;-79
2023/12/22 11:31:00;;;;;;;0.10;0.10;;;6.30;99.90;;;;;;5045888;28;20064;-78
2023/12/22 11:33:28;;;;;;;0.30;0.30;;;6.40;99.90;;;;;;5042282;28;20108;-79
2023/12/22 11:35:56;;;;;;;0.35;0.35;;;6.40;99.90;;;;;;5042048;28;20033;-79
2023/12/22 11:38:22;;;;;;;0.65;0.65;;;6.40;99.90;;;;;;5029775;28;20044;-80
2023/12/22 11:40:55;;;;;;;0.17;0.17;;;6.40;99.90;;;;;;5050970;22;20401;-80
2023/12/22 11:43:35;;;;;;;4.40;4.20;;;7.10;99.90;;;;;;5009841;28;20739;-79
2023/12/22 11:46:04;;;;;;;0.20;0.20;;;6.50;99.90;;;;;;5029492;28;20573;-79
2023/12/22 11:48:30;;;;;;;0.10;0.10;;;6.60;99.90;;;;;;5011609;28;20099;-79
2023/12/22 11:51:26;;;;;;;0.10;0.10;;;6.60;99.90;;;;;;5032296;28;20047;-80
2023/12/22 11:53:59;;;;;;;0.10;0.10;;;6.60;99.90;;;;;;5030198;28;20018;-80
2023/12/22 11:56:37;;;;;;;0.20;0.20;;;6.70;99.90;;;;;;5020479;28;20071;-80
2023/12/22 11:59:04;;;;;;;0.10;0.10;;;6.60;99.90;;;;;;5030531;28;20029;-80
2023/12/22 12:01:42;;;;;;;0.22;0.22;;;6.50;99.90;;;;;;5021152;28;20542;-80
2023/12/22 12:04:07;;;;;;;0.20;0.20;;;6.50;99.90;;;;;;5021121;28;20021;-79
2023/12/22 12:06:39;;;;;;;0.10;0.10;;;6.60;99.90;;;;;;5072541;23;20413;-80
2023/12/22 12:10:07;;;;;;;0.15;0.15;;;6.60;99.90;;;;;;5079917;28;20560;-79
2023/12/22 12:12:34;;;;;;;0.20;0.20;;;6.50;99.90;;;;;;5079868;28;20043;-80
2023/12/22 12:15:07;;;;;;;0.20;0.20;;;6.50;99.90;;;;;;5084239;28;20034;-80
2023/12/22 12:17:37;;;;;;;0.22;0.22;;;6.60;99.90;;;;;;5080153;28;20012;-80
2023/12/22 12:20:09;;;;;;;0.00;0.00;;;6.60;99.90;;;;;;5063032;28;20044;-79
2023/12/22 12:22:45;;;;;;;0.20;0.20;;;6.70;99.90;;;;;;5085612;28;20024;-80
2023/12/22 12:25:11;;;;;;;0.20;0.20;;;6.70;99.90;;;;;;5066743;28;20062;-80
2023/12/22 12:27:42;;;;;;;0.35;0.35;;;6.70;99.90;;;;;;5088877;28;20020;-80
2023/12/22 12:30:12;;;;;;;0.73;0.73;;;6.70;99.90;;;;;;5081015;28;20936;-79
2023/12/22 12:32:38;;;;;;;0.10;0.10;;;6.60;99.90;;;;;;5080596;28;20650;-79
2023/12/22 12:35:04;;;;;;;0.47;0.47;;;6.70;99.90;;;;;;5061860;28;20047;-79
2023/12/22 12:37:32;;;;;;;26.15;24.20;;;6.70;99.90;;;;;;5063010;28;20020;-80
2023/12/22 12:40:04;;;;;;;38.63;36.60;;;6.80;99.90;;;;;;5081802;28;20085;-80
2023/12/22 12:42:31;;;;;;;13.10;12.55;;;6.70;99.90;;;;;;5073489;28;20024;-80
2023/12/22 12:45:08;;;;;;;0.28;0.28;;;6.80;99.90;;;;;;5082005;28;20073;-79
2023/12/22 12:47:33;;;;;;;0.20;0.20;;;6.80;99.90;;;;;;5081455;23;20032;-79
2023/12/22 12:50:05;;;;;;;0.20;0.20;;;6.70;99.90;;;;;;5102216;28;20088;-79
2023/12/22 12:52:31;;;;;;;0.10;0.10;;;6.70;99.90;;;;;;5098879;28;20019;-79
2023/12/22 12:55:05;;;;;;;0.20;0.20;;;6.90;99.90;;;;;;5100495;28;20603;-79
2023/12/22 12:57:37;;;;;;;0.20;0.20;;;7.00;99.90;;;;;;5100223;28;20105;-79
2023/12/22 13:00:03;;;;;;;0.13;0.13;;;7.00;99.90;;;;;;5100663;28;20020;-79
2023/12/22 13:02:35;;;;;;;1.40;1.38;;;7.00;99.90;;;;;;5104097;28;20020;-80
2023/12/22 13:05:04;;;;;;;0.20;0.20;;;7.10;99.90;;;;;;5103658;28;20028;-79
2023/12/22 13:07:30;;;;;;;0.15;0.15;;;8.30;99.90;;;;;;5105170;28;20027;-79
2023/12/22 13:09:56;;;;;;;0.10;0.10;;;7.30;99.90;;;;;;5104888;28;20023;-79